Time;durP1;ratioP1;P1;durP2;ratioP2;P2;SDS_P1;SDS_P2;PMS_P1;PMS_P2;Temp;Humidity;BMP_temperature;BMP_pressure;BME280_temperature;BME280_humidity;BME280_pressure;Samples;Min_cycle;Max_cycle;Signal;HPM_P1;HPM_P2
2024/03/22 00:00:12;;;;;;;14.38;8.35;;;;;;;10.72;100.00;101772.16;6274569;28;20060;-72
2024/03/22 00:03:13;;;;;;;15.93;8.07;;;;;;;10.68;100.00;101765.34;6253782;28;20056;-72
2024/03/22 00:06:15;;;;;;;15.77;8.27;;;;;;;10.66;100.00;101760.97;6266955;28;20056;-71
2024/03/22 00:09:17;;;;;;;15.82;8.32;;;;;;;10.69;100.00;101761.78;6250243;28;20053;-72
2024/03/22 00:12:17;;;;;;;21.05;8.52;;;;;;;10.72;100.00;101756.38;6267261;28;20045;-72
2024/03/22 00:15:19;;;;;;;13.85;8.30;;;;;;;10.74;100.00;101751.94;6274488;28;20053;-74
2024/03/22 00:18:19;;;;;;;15.20;8.57;;;;;;;10.79;100.00;101744.75;6274409;28;20083;-72
2024/03/22 00:21:22;;;;;;;19.13;9.10;;;;;;;10.59;100.00;101735.00;6274066;28;20067;-72
2024/03/22 00:24:22;;;;;;;17.85;9.20;;;;;;;10.46;100.00;101728.47;6274825;28;20434;-72
2024/03/22 00:27:24;;;;;;;18.88;9.15;;;;;;;10.49;100.00;101713.47;6270571;28;20060;-73
2024/03/22 00:30:24;;;;;;;16.35;8.75;;;;;;;10.42;100.00;101711.97;6251590;28;20603;-74
2024/03/22 00:33:25;;;;;;;23.50;9.52;;;;;;;10.35;100.00;101710.47;6274118;28;20076;-72
2024/03/22 00:36:27;;;;;;;20.80;10.25;;;;;;;10.31;100.00;101708.84;6274238;28;20071;-72
2024/03/22 00:39:28;;;;;;;19.27;9.77;;;;;;;10.50;100.00;101725.69;6274893;28;20037;-72
2024/03/22 00:42:29;;;;;;;25.83;10.68;;;;;;;10.28;100.00;101722.97;6279131;28;20072;-72
2024/03/22 00:45:30;;;;;;;22.75;10.85;;;;;;;10.31;100.00;101724.63;6278620;28;20045;-72
2024/03/22 00:48:30;;;;;;;23.83;11.57;;;;;;;10.37;100.00;101727.03;6279094;28;20075;-72
2024/03/22 00:51:33;;;;;;;25.67;12.30;;;;;;;10.48;100.00;101708.25;6277957;28;20036;-72
2024/03/22 00:54:34;;;;;;;23.08;11.82;;;;;;;10.49;100.00;101708.19;6278819;28;20041;-73
2024/03/22 00:57:35;;;;;;;28.77;11.75;;;;;;;10.65;100.00;101703.22;6278420;28;20075;-72
2024/03/22 01:00:37;;;;;;;23.42;11.93;;;;;;;10.67;100.00;101701.34;6277997;28;20076;-72
2024/03/22 01:03:38;;;;;;;26.50;12.55;;;;;;;10.64;100.00;101689.22;6278524;28;20453;-73
2024/03/22 01:06:40;;;;;;;27.25;12.27;;;;;;;10.68;100.00;101694.34;6278064;28;20045;-73
2024/03/22 01:09:43;;;;;;;22.35;12.05;;;;;;;10.64;100.00;101693.63;6277845;28;20052;-72
2024/03/22 01:12:45;;;;;;;24.13;12.68;;;;;;;10.63;100.00;101689.28;6278218;28;20041;-72
2024/03/22 01:15:45;;;;;;;26.42;12.98;;;;;;;10.68;100.00;101675.97;6277815;28;20048;-72
2024/03/22 01:18:47;;;;;;;27.13;13.10;;;;;;;10.64;100.00;101676.06;6278211;28;20068;-74
2024/03/22 01:21:49;;;;;;;27.30;12.98;;;;;;;10.68;100.00;101674.19;6277666;28;20040;-71
2024/03/22 01:24:50;;;;;;;25.58;14.70;;;;;;;10.65;100.00;101663.78;6277507;28;20052;-71
2024/03/22 01:27:51;;;;;;;30.42;12.23;;;;;;;10.74;100.00;101655.53;6278102;28;20045;-71
2024/03/22 01:30:52;;;;;;;20.45;11.63;;;;;;;10.71;100.00;101647.75;6277231;28;20052;-71
2024/03/22 01:33:53;;;;;;;27.55;12.48;;;;;;;10.66;100.00;101647.94;6271672;28;20335;-73
2024/03/22 01:36:55;;;;;;;27.05;13.10;;;;;;;10.71;100.00;101642.50;6269378;28;20041;-73
2024/03/22 01:39:56;;;;;;;26.80;13.40;;;;;;;10.55;100.00;101641.41;6266907;28;20048;-72
2024/03/22 01:42:58;;;;;;;31.08;13.05;;;;;;;10.49;100.00;101639.88;6278009;28;20048;-73
2024/03/22 01:45:58;;;;;;;27.63;13.25;;;;;;;10.55;100.00;101633.50;6269579;28;20045;-71
2024/03/22 01:49:00;;;;;;;29.58;14.07;;;;;;;10.57;100.00;101631.66;6278434;28;20048;-72
2024/03/22 01:52:03;;;;;;;26.58;13.55;;;;;;;10.56;100.00;101630.81;6268290;28;20433;-72
2024/03/22 01:55:06;;;;;;;29.27;14.27;;;;;;;10.61;100.00;101617.50;6276992;28;20389;-72
2024/03/22 01:58:08;;;;;;;32.00;13.85;;;;;;;10.56;100.00;101608.94;6278030;28;20060;-72
2024/03/22 02:01:09;;;;;;;26.13;13.63;;;;;;;10.59;100.00;101604.41;6263676;28;20056;-72
2024/03/22 02:04:10;;;;;;;25.45;13.23;;;;;;;10.61;100.00;101601.72;6280463;28;20045;-73
2024/03/22 02:07:13;;;;;;;31.60;14.43;;;;;;;10.56;100.00;101599.28;6279129;28;20049;-73
2024/03/22 02:10:14;;;;;;;29.33;13.65;;;;;;;10.53;100.00;101591.50;6276375;28;20060;-74
2024/03/22 02:13:15;;;;;;;38.30;14.50;;;;;;;10.54;100.00;101577.47;6276669;28;20076;-74
2024/03/22 02:16:16;;;;;;;25.33;13.15;;;;;;;10.62;100.00;101575.38;6276674;28;20077;-74
2024/03/22 02:19:18;;;;;;;32.40;14.07;;;;;;;10.63;100.00;101565.72;6276495;28;20101;-72
2024/03/22 02:22:20;;;;;;;29.92;14.48;;;;;;;10.57;100.00;101556.28;6276302;28;20045;-74
2024/03/22 02:25:22;;;;;;;31.08;14.48;;;;;;;10.49;100.00;101533.88;6276109;28;20053;-72
2024/03/22 02:28:23;;;;;;;35.67;15.50;;;;;;;10.47;100.00;101538.34;6276584;28;20076;-73
2024/03/22 02:31:25;;;;;;;33.20;16.02;;;;;;;10.41;100.00;101542.09;6275679;28;20045;-72
2024/03/22 02:34:26;;;;;;;35.33;16.17;;;;;;;10.39;100.00;101547.38;6254351;28;20054;-72
2024/03/22 02:37:28;;;;;;;34.72;16.83;;;;;;;10.28;100.00;101551.34;6253753;28;20053;-71
2024/03/22 02:40:30;;;;;;;35.45;16.63;;;;;;;10.40;100.00;101543.84;6266798;28;20045;-72
2024/03/22 02:43:31;;;;;;;35.65;17.13;;;;;;;10.43;100.00;101542.00;6254601;28;20635;-72
2024/03/22 02:46:32;;;;;;;38.28;17.25;;;;;;;10.34;100.00;101538.81;6275704;28;20078;-72
2024/03/22 02:49:32;;;;;;;44.28;18.58;;;;;;;10.39;100.00;101539.50;6266947;28;20334;-72
2024/03/22 02:52:34;;;;;;;47.38;18.65;;;;;;;10.34;100.00;101532.72;6275754;28;20041;-71
2024/03/22 02:55:39;;;;;;;42.88;18.55;;;;;;;10.39;100.00;101522.88;6268131;28;20057;-73
2024/03/22 02:58:40;;;;;;;40.80;18.73;;;;;;;10.41;100.00;101514.03;6255153;28;20065;-73
2024/03/22 03:01:41;;;;;;;42.67;18.35;;;;;;;10.37;100.00;101509.81;6274596;28;20075;-73
2024/03/22 03:04:42;;;;;;;40.25;18.85;;;;;;;10.38;100.00;101502.78;6275427;28;20064;-73
2024/03/22 03:07:42;;;;;;;43.17;18.27;;;;;;;10.36;100.00;101502.00;6259610;28;20049;-72
2024/03/22 03:10:45;;;;;;;42.65;18.65;;;;;;;10.41;100.00;101505.28;6252178;28;20083;-72
2024/03/22 03:13:46;;;;;;;39.80;19.88;;;;;;;10.37;100.00;101495.81;6268784;28;20143;-72
2024/03/22 03:16:47;;;;;;;46.35;19.08;;;;;;;10.38;100.00;101487.88;6275185;28;20049;-72
2024/03/22 03:19:48;;;;;;;46.03;19.55;;;;;;;10.45;100.00;101480.59;6275015;28;20460;-72
2024/03/22 03:22:49;;;;;;;45.72;19.90;;;;;;;10.47;100.00;101472.66;6266758;28;20040;-72
2024/03/22 03:25:51;;;;;;;49.30;18.55;;;;;;;10.45;100.00;101461.34;6273829;28;20060;-72
2024/03/22 03:28:54;;;;;;;52.83;20.77;;;;;;;10.45;100.00;101461.34;6275151;28;20052;-72
2024/03/22 03:31:54;;;;;;;42.78;18.23;;;;;;;10.42;100.00;101464.97;6274533;28;20045;-72
2024/03/22 03:34:56;;;;;;;46.65;19.85;;;;;;;10.39;100.00;101471.19;6274908;28;20048;-72
2024/03/22 03:37:56;;;;;;;48.28;20.30;;;;;;;10.46;100.00;101470.94;6274911;28;20049;-72
2024/03/22 03:40:59;;;;;;;46.97;21.13;;;;;;;10.47;100.00;101462.13;6274503;28;20075;-72
2024/03/22 03:43:59;;;;;;;48.45;20.13;;;;;;;10.40;100.00;101467.66;6274955;28;20052;-72
2024/03/22 03:47:01;;;;;;;47.88;19.70;;;;;;;10.50;100.00;101448.88;6274873;28;20076;-73
2024/03/22 03:50:02;;;;;;;57.03;21.80;;;;;;;10.57;100.00;101451.16;6274134;28;20049;-72
2024/03/22 03:53:03;;;;;;;51.20;20.63;;;;;;;10.61;100.00;101444.00;6274994;28;20071;-72
2024/03/22 03:56:05;;;;;;;53.17;21.45;;;;;;;10.59;100.00;101444.09;6274598;28;20056;-72
2024/03/22 03:59:07;;;;;;;47.28;20.90;;;;;;;10.50;100.00;101436.59;6274598;28;20045;-73
2024/03/22 04:02:07;;;;;;;54.45;20.10;;;;;;;10.47;100.00;101441.13;6253125;28;20180;-72
2024/03/22 04:05:09;;;;;;;50.40;22.10;;;;;;;10.47;100.00;101427.97;6252908;28;20053;-72
2024/03/22 04:08:09;;;;;;;58.05;22.27;;;;;;;10.50;100.00;101415.56;6253181;28;20046;-72
2024/03/22 04:11:12;;;;;;;53.90;21.60;;;;;;;10.49;100.00;101413.00;6251712;28;20061;-72
2024/03/22 04:14:12;;;;;;;57.67;22.00;;;;;;;10.53;100.00;101411.94;6251705;28;20064;-71
2024/03/22 04:17:13;;;;;;;62.28;24.38;;;;;;;10.51;100.00;101404.13;6254009;28;20053;-72
2024/03/22 04:20:14;;;;;;;56.38;21.55;;;;;;;10.51;100.00;101412.00;6253689;28;20128;-72
2024/03/22 04:23:15;;;;;;;56.63;21.70;;;;;;;10.54;100.00;101403.16;6258577;28;20061;-72
2024/03/22 04:26:18;;;;;;;61.13;23.50;;;;;;;10.54;100.00;101400.53;6257206;28;20056;-72
2024/03/22 04:29:19;;;;;;;59.00;23.30;;;;;;;10.59;100.00;101399.41;6257212;28;20045;-72
2024/03/22 04:32:20;;;;;;;54.00;22.25;;;;;;;10.59;100.00;101395.94;6264715;28;20056;-72
2024/03/22 04:35:21;;;;;;;66.40;24.02;;;;;;;10.57;100.00;101388.09;6267366;28;20046;-72
2024/03/22 04:38:22;;;;;;;58.53;22.77;;;;;;;10.62;100.00;101377.38;6262395;28;20049;-72
2024/03/22 04:41:25;;;;;;;61.55;21.98;;;;;;;10.65;100.00;101385.13;6278100;28;20052;-72
2024/03/22 04:44:27;;;;;;;63.55;24.20;;;;;;;10.63;100.00;101379.97;6278910;28;20045;-72
2024/03/22 04:47:27;;;;;;;57.45;22.48;;;;;;;10.64;100.00;101381.66;6278771;28;20464;-72
2024/03/22 04:50:28;;;;;;;63.85;23.33;;;;;;;10.64;100.00;101362.41;6278064;28;20049;-72
2024/03/22 04:53:29;;;;;;;70.45;24.80;;;;;;;10.69;100.00;101364.84;6272039;28;20136;-72
2024/03/22 04:56:32;;;;;;;62.80;23.73;;;;;;;10.66;100.00;101358.78;6261295;28;20404;-72
2024/03/22 04:59:32;;;;;;;61.55;23.70;;;;;;;10.71;100.00;101369.09;6256362;28;20460;-72
2024/03/22 05:02:33;;;;;;;61.92;23.08;;;;;;;10.74;100.00;101370.75;6260214;28;20045;-73
2024/03/22 05:05:34;;;;;;;65.75;24.63;;;;;;;10.73;100.00;101354.13;6263244;28;20045;-72
2024/03/22 05:08:36;;;;;;;57.47;22.58;;;;;;;10.77;100.00;101358.31;6264145;28;20449;-72
2024/03/22 05:11:37;;;;;;;53.40;21.15;;;;;;;10.74;100.00;101349.72;6262115;28;20052;-72
2024/03/22 05:14:39;;;;;;;60.00;22.15;;;;;;;10.76;100.00;101353.13;6260787;28;20650;-73
2024/03/22 05:17:41;;;;;;;69.32;23.70;;;;;;;10.72;100.00;101336.66;6258446;28;20064;-73
2024/03/22 05:20:42;;;;;;;60.72;23.85;;;;;;;10.78;100.00;101346.03;6246254;28;20128;-72
2024/03/22 05:23:43;;;;;;;59.15;22.52;;;;;;;10.77;100.00;101337.28;6260782;28;20061;-72
2024/03/22 05:26:45;;;;;;;60.63;24.27;;;;;;;10.78;100.00;101327.63;6256046;28;20044;-72
2024/03/22 05:29:46;;;;;;;62.38;23.23;;;;;;;10.78;100.00;101330.25;6252745;28;20132;-72
2024/03/22 05:32:49;;;;;;;54.90;22.38;;;;;;;10.85;100.00;101329.03;6273973;28;20120;-71
2024/03/22 05:35:49;;;;;;;61.83;21.73;;;;;;;10.92;100.00;101326.06;6277431;28;20045;-71
2024/03/22 05:38:50;;;;;;;56.08;23.15;;;;;;;10.91;100.00;101334.88;6259706;28;20064;-72
2024/03/22 05:41:52;;;;;;;59.53;22.05;;;;;;;10.89;100.00;101320.94;6265895;28;20045;-72
2024/03/22 05:44:55;;;;;;;59.35;23.70;;;;;;;10.90;100.00;101311.28;6277158;28;20041;-73
2024/03/22 05:47:55;;;;;;;64.07;25.23;;;;;;;10.92;100.00;101310.28;6277230;28;20045;-73
2024/03/22 05:50:56;;;;;;;60.67;24.00;;;;;;;10.94;100.00;101302.31;6298819;22;20079;-79
2024/03/22 05:53:58;;;;;;;72.13;23.70;;;;;;;10.94;100.00;101299.69;6277094;28;20353;-79
2024/03/22 05:57:00;;;;;;;56.88;22.40;;;;;;;11.02;100.00;101302.84;6277122;28;20048;-80
2024/03/22 06:00:01;;;;;;;70.13;24.10;;;;;;;11.01;100.00;101316.06;6268994;28;20048;-79
2024/03/22 06:03:03;;;;;;;58.35;21.50;;;;;;;11.03;100.00;101314.19;6252351;28;20357;-79
2024/03/22 06:06:04;;;;;;;57.38;21.25;;;;;;;11.04;100.00;101315.94;6251961;28;20136;-80
2024/03/22 06:09:09;;;;;;;63.47;22.77;;;;;;;11.10;100.00;101316.50;6236803;28;20050;-79
2024/03/22 06:12:12;;;;;;;64.80;23.40;;;;;;;11.15;100.00;101317.13;6242727;28;20150;-80
2024/03/22 06:15:12;;;;;;;52.88;22.13;;;;;;;11.15;100.00;101313.66;6251804;28;20041;-79
2024/03/22 06:18:13;;;;;;;67.32;23.20;;;;;;;11.13;100.00;101320.78;6252059;28;20476;-79
2024/03/22 06:21:14;;;;;;;58.08;21.58;;;;;;;11.13;100.00;101321.63;6251269;28;20050;-79
2024/03/22 06:24:15;;;;;;;69.55;23.63;;;;;;;11.20;100.00;101318.69;6238335;28;20053;-79
2024/03/22 06:27:17;;;;;;;60.50;22.75;;;;;;;11.25;100.00;101314.91;6234081;28;20045;-79
2024/03/22 06:30:18;;;;;;;61.35;21.05;;;;;;;11.36;100.00;101311.78;6242016;28;20446;-79
2024/03/22 06:33:19;;;;;;;61.78;22.08;;;;;;;11.41;100.00;101296.63;6243984;28;20057;-79
2024/03/22 06:36:22;;;;;;;57.15;21.15;;;;;;;11.41;100.00;101286.09;6251396;28;20049;-79
2024/03/22 06:39:23;;;;;;;57.08;22.25;;;;;;;11.29;100.00;101276.16;6251222;28;20050;-79
2024/03/22 06:42:26;;;;;;;54.13;21.15;;;;;;;11.34;100.00;101276.78;6251609;28;20087;-79
2024/03/22 06:45:28;;;;;;;57.75;21.83;;;;;;;11.28;100.00;101269.19;6251055;28;20436;-79
2024/03/22 06:48:28;;;;;;;57.55;20.58;;;;;;;11.28;100.00;101267.41;6251407;28;20077;-79
2024/03/22 06:51:29;;;;;;;67.30;20.70;;;;;;;11.38;100.00;101254.66;6250562;28;20068;-79
2024/03/22 06:54:30;;;;;;;54.75;20.45;;;;;;;11.42;100.00;101253.59;6250859;28;20354;-79
2024/03/22 06:57:33;;;;;;;51.00;19.75;;;;;;;11.45;100.00;101247.34;6251013;28;20049;-79
2024/03/22 07:00:35;;;;;;;48.75;19.60;;;;;;;11.45;100.00;101252.59;6243555;28;21569;-79
2024/03/22 07:03:35;;;;;;;49.17;19.58;;;;;;;11.45;100.00;101256.09;6250894;28;20045;-79
2024/03/22 07:06:36;;;;;;;56.83;19.20;;;;;;;11.53;100.00;101253.06;6250602;28;20052;-78
2024/03/22 07:09:37;;;;;;;47.42;17.60;;;;;;;11.45;100.00;101250.81;6247374;28;20057;-79
2024/03/22 07:12:39;;;;;;;46.65;17.70;;;;;;;11.53;100.00;101258.31;6245709;28;20422;-79
2024/03/22 07:15:40;;;;;;;46.75;19.45;;;;;;;11.58;100.00;101241.41;6250361;28;20049;-78
2024/03/22 07:18:41;;;;;;;52.38;17.90;;;;;;;11.55;100.00;101265.22;6250590;28;20484;-78
2024/03/22 07:21:42;;;;;;;43.53;17.02;;;;;;;11.56;100.00;101258.19;6250140;28;20049;-79
2024/03/22 07:24:43;;;;;;;48.22;16.27;;;;;;;11.61;100.00;101249.13;6250347;28;20041;-79
2024/03/22 07:27:46;;;;;;;41.40;17.27;;;;;;;11.72;100.00;101255.63;6250400;28;20046;-79
2024/03/22 07:30:47;;;;;;;52.20;18.02;;;;;;;11.67;100.00;101261.13;6250114;28;20071;-78
2024/03/22 07:33:48;;;;;;;49.35;19.38;;;;;;;11.63;100.00;101256.97;6250279;28;20045;-79
2024/03/22 07:36:49;;;;;;;45.85;19.10;;;;;;;11.67;100.00;101255.84;6250342;28;20061;-78
2024/03/22 07:39:50;;;;;;;55.40;19.15;;;;;;;11.63;100.00;101265.72;6249678;28;20449;-79
2024/03/22 07:42:53;;;;;;;52.60;19.60;;;;;;;11.58;100.00;101251.94;6250340;28;20041;-78
2024/03/22 07:45:55;;;;;;;53.70;19.85;;;;;;;11.59;100.00;101229.09;6249869;28;20045;-78
2024/03/22 07:48:55;;;;;;;42.65;19.17;;;;;;;11.47;100.00;101242.84;6249572;28;20358;-78
2024/03/22 07:51:56;;;;;;;53.50;18.98;;;;;;;11.41;100.00;101236.94;6244080;28;20057;-79
2024/03/22 07:54:58;;;;;;;52.45;20.67;;;;;;;11.32;100.00;101247.94;6247252;28;20038;-79
2024/03/22 07:57:59;;;;;;;45.15;18.52;;;;;;;11.26;100.00;101242.09;6250256;28;20042;-80
2024/03/22 08:01:01;;;;;;;53.50;19.10;;;;;;;11.21;100.00;101239.69;6249444;28;20060;-79
2024/03/22 08:04:01;;;;;;;57.10;20.95;;;;;;;11.18;100.00;101227.56;6250029;28;20064;-81
2024/03/22 08:07:02;;;;;;;50.95;20.50;;;;;;;11.14;100.00;101209.34;6249760;28;20438;-81
2024/03/22 08:10:04;;;;;;;55.92;20.13;;;;;;;11.05;100.00;101223.78;6236903;28;20050;-79
2024/03/22 08:13:07;;;;;;;58.95;20.95;;;;;;;11.08;100.00;101225.41;6208961;28;20054;-80
2024/03/22 08:16:07;;;;;;;68.32;22.45;;;;;;;11.06;100.00;101227.28;6217850;28;20046;-80
2024/03/22 08:19:08;;;;;;;55.42;21.35;;;;;;;11.10;100.00;101229.69;6224158;28;20363;-80
2024/03/22 08:22:10;;;;;;;57.17;20.92;;;;;;;11.07;100.00;101221.94;6222709;28;20386;-79
2024/03/22 08:25:10;;;;;;;61.70;21.60;;;;;;;11.02;100.00;101223.09;6225151;28;20358;-80
2024/03/22 08:28:14;;;;;;;59.25;22.10;;;;;;;11.08;100.00;101209.63;6219191;28;20050;-76
2024/03/22 08:31:15;;;;;;;68.18;23.15;;;;;;;11.12;100.00;101208.56;6236877;28;20100;-79
2024/03/22 08:34:16;;;;;;;69.03;23.70;;;;;;;11.13;100.00;101219.03;6249377;28;20045;-78
2024/03/22 08:37:17;;;;;;;68.47;23.50;;;;;;;11.10;100.00;101211.28;6221016;28;20058;-80
2024/03/22 08:40:19;;;;;;;71.30;23.98;;;;;;;11.15;100.00;101208.41;6232483;28;20112;-79
2024/03/22 08:43:22;;;;;;;65.85;23.23;;;;;;;11.22;100.00;101201.06;6249408;28;20426;-79
2024/03/22 08:46:24;;;;;;;60.72;24.17;;;;;;;11.23;100.00;101192.28;6243228;28;20335;-79
2024/03/22 08:49:26;;;;;;;60.72;25.02;;;;;;;11.20;100.00;101192.41;6248947;28;20050;-78
2024/03/22 08:52:26;;;;;;;67.22;24.98;;;;;;;11.21;100.00;101188.84;6241452;28;20046;-80
2024/03/22 08:55:27;;;;;;;65.75;25.30;;;;;;;11.18;100.00;101184.59;6240484;28;20073;-80
2024/03/22 08:58:30;;;;;;;63.03;24.42;;;;;;;11.22;100.00;101195.81;6225445;28;20080;-79
2024/03/22 09:01:30;;;;;;;61.20;23.38;;;;;;;11.25;100.00;101193.03;6225900;28;20050;-81
2024/03/22 09:04:32;;;;;;;70.85;26.60;;;;;;;11.25;100.00;101196.53;6229134;28;20045;-82
2024/03/22 09:07:32;;;;;;;73.63;26.65;;;;;;;11.25;100.00;101188.63;6239379;28;20068;-79
2024/03/22 09:10:34;;;;;;;64.13;24.67;;;;;;;11.25;100.00;101182.50;6252806;28;20049;-76
2024/03/22 09:13:35;;;;;;;70.95;26.15;;;;;;;11.33;100.00;101191.75;6253265;28;20430;-80
2024/03/22 09:16:37;;;;;;;77.28;26.13;;;;;;;11.32;100.00;101186.56;6244960;28;20076;-81
2024/03/22 09:19:37;;;;;;;65.70;25.77;;;;;;;11.33;100.00;101188.25;6245021;28;20058;-79
2024/03/22 09:22:39;;;;;;;74.28;26.77;;;;;;;11.31;100.00;101185.72;6228878;28;20053;-80
2024/03/22 09:25:40;;;;;;;79.47;28.40;;;;;;;11.35;100.00;101181.97;6230977;28;20042;-80
2024/03/22 09:28:43;;;;;;;71.35;25.83;;;;;;;11.34;100.00;101175.00;6252738;28;20314;-79
2024/03/22 09:31:43;;;;;;;65.85;26.33;;;;;;;11.36;100.00;101174.97;6246285;28;20354;-79
2024/03/22 09:34:45;;;;;;;69.10;27.73;;;;;;;11.40;100.00;101177.34;6245837;28;20038;-78
2024/03/22 09:37:46;;;;;;;86.75;28.65;;;;;;;11.47;100.00;101161.25;6253150;28;20052;-79
2024/03/22 09:40:47;;;;;;;65.72;24.92;;;;;;;11.57;100.00;101162.47;6251831;28;20128;-80
2024/03/22 09:43:50;;;;;;;66.10;26.25;;;;;;;11.56;100.00;101159.00;6253008;28;20108;-79
2024/03/22 09:46:52;;;;;;;73.22;27.30;;;;;;;11.63;100.00;101157.78;6252437;28;20128;-79
2024/03/22 09:49:53;;;;;;;69.82;26.10;;;;;;;11.77;100.00;101157.06;6252163;28;20041;-79
2024/03/22 09:52:56;;;;;;;76.40;26.67;;;;;;;11.74;100.00;101154.56;6252634;28;20064;-80
2024/03/22 09:56:01;;;;;;;65.70;26.58;;;;;;;11.90;100.00;101149.41;6250009;28;20049;-79
2024/03/22 09:59:03;;;;;;;65.20;24.92;;;;;;;11.93;100.00;101139.53;6227884;28;20050;-79
2024/03/22 10:02:05;;;;;;;68.93;26.52;;;;;;;11.93;100.00;101150.09;6249786;28;20176;-78
2024/03/22 10:05:05;;;;;;;66.00;25.55;;;;;;;11.96;100.00;101156.97;6252034;28;20052;-77
2024/03/22 10:08:07;;;;;;;63.85;25.98;;;;;;;12.06;100.00;101139.75;6252001;28;20361;-78
2024/03/22 10:11:08;;;;;;;59.88;23.88;;;;;;;12.18;100.00;101133.84;6251366;28;20068;-80
2024/03/22 10:14:11;;;;;;;55.33;23.17;;;;;;;12.37;100.00;101128.41;6244212;28;20053;-79
2024/03/22 10:17:11;;;;;;;51.70;24.23;;;;;;;12.42;100.00;101125.53;6227205;28;20127;-79
2024/03/22 10:20:14;;;;;;;55.38;24.55;;;;;;;12.46;100.00;101127.06;6221718;28;20057;-79
2024/03/22 10:23:14;;;;;;;57.80;23.52;;;;;;;12.70;100.00;101135.38;6251456;28;20136;-79
2024/03/22 10:26:17;;;;;;;44.95;20.10;;;;;;;12.81;100.00;101124.22;6251616;28;20404;-78
2024/03/22 10:29:20;;;;;;;47.10;21.00;;;;;;;12.81;100.00;101134.78;6251603;28;20073;-79
2024/03/22 10:32:23;;;;;;;48.17;18.75;;;;;;;12.83;100.00;101131.13;6224996;28;20046;-78
2024/03/22 10:35:24;;;;;;;43.17;19.48;;;;;;;12.75;100.00;101127.22;6235359;28;20049;-79
2024/03/22 10:38:27;;;;;;;48.78;19.98;;;;;;;12.71;100.00;101131.81;6251363;28;20060;-79
2024/03/22 10:41:27;;;;;;;52.45;18.85;;;;;;;12.67;100.00;101131.16;6230090;28;20054;-79
2024/03/22 10:44:30;;;;;;;43.13;18.90;;;;;;;12.57;100.00;101127.31;6244347;28;20048;-78
2024/03/22 10:47:33;;;;;;;53.10;18.88;;;;;;;12.51;100.00;101122.38;6250817;28;20434;-78
2024/03/22 10:50:35;;;;;;;46.30;18.63;;;;;;;12.57;100.00;101119.41;6250642;28;20541;-79
2024/03/22 10:53:38;;;;;;;43.63;18.30;;;;;;;12.52;100.00;101133.78;6250762;28;20171;-79
2024/03/22 10:56:41;;;;;;;42.92;18.00;;;;;;;12.52;100.00;101131.97;6250906;28;20053;-78
2024/03/22 10:59:43;;;;;;;41.28;18.02;;;;;;;12.36;100.00;101133.78;6247859;28;20342;-79
2024/03/22 11:02:46;;;;;;;45.08;18.83;;;;;;;12.51;100.00;101125.03;6251036;28;20134;-78
2024/03/22 11:05:46;;;;;;;46.45;19.85;;;;;;;12.43;100.00;101104.34;6249507;28;20041;-79
2024/03/22 11:08:52;;;;;;;40.63;17.55;;;;;;;12.29;100.00;101116.59;6225990;28;20057;-79
2024/03/22 11:11:53;;;;;;;43.95;17.65;;;;;;;12.32;100.00;101121.69;6246359;28;20045;-79
2024/03/22 11:14:56;;;;;;;39.85;16.25;;;;;;;12.37;100.00;101114.38;6250147;28;20056;-79
2024/03/22 11:17:57;;;;;;;38.03;16.63;;;;;;;12.37;100.00;101115.25;6250511;28;20342;-80
2024/03/22 11:21:00;;;;;;;34.83;16.52;;;;;;;12.30;100.00;101107.75;6236605;28;20041;-79
2024/03/22 11:24:00;;;;;;;33.22;15.82;;;;;;;12.34;100.00;101115.41;6249911;28;20041;-78
2024/03/22 11:27:01;;;;;;;36.47;15.95;;;;;;;12.18;100.00;101112.75;6250146;28;20357;-78
2024/03/22 11:30:04;;;;;;;40.42;16.92;;;;;;;12.23;100.00;101107.25;6245953;28;20060;-78
2024/03/22 11:33:06;;;;;;;32.67;15.35;;;;;;;12.23;100.00;101104.59;6248264;28;20365;-77
2024/03/22 11:36:07;;;;;;;36.13;16.42;;;;;;;12.14;100.00;101102.47;6250225;28;20136;-79
2024/03/22 11:39:09;;;;;;;34.90;15.23;;;;;;;12.09;100.00;101112.41;6250118;28;20053;-78
2024/03/22 11:42:10;;;;;;;37.40;16.27;;;;;;;12.06;100.00;101105.50;6249625;28;20049;-78
2024/03/22 11:45:15;;;;;;;38.00;16.15;;;;;;;12.04;100.00;101096.00;6250018;28;20121;-79
2024/03/22 11:48:16;;;;;;;43.40;16.63;;;;;;;12.03;100.00;101100.41;6250273;28;20121;-77
2024/03/22 11:51:17;;;;;;;34.80;16.02;;;;;;;11.93;100.00;101097.41;6249482;28;20462;-78
2024/03/22 11:54:20;;;;;;;39.17;15.20;;;;;;;11.87;100.00;101115.34;6249631;28;20086;-77
2024/03/22 11:57:21;;;;;;;34.90;15.55;;;;;;;11.84;100.00;101090.00;6231153;28;20057;-77
2024/03/22 12:00:25;;;;;;;41.63;15.82;;;;;;;11.87;100.00;101097.75;6249222;28;20049;-77
2024/03/22 12:03:26;;;;;;;32.45;15.07;;;;;;;11.82;100.00;101097.13;6249977;28;20068;-80
2024/03/22 12:06:27;;;;;;;37.60;15.93;;;;;;;11.77;100.00;101099.13;6245399;28;20049;-78
2024/03/22 12:09:28;;;;;;;33.97;14.18;;;;;;;11.99;100.00;101103.28;6233064;28;20076;-78
2024/03/22 12:12:29;;;;;;;36.63;16.90;;;;;;;11.87;100.00;101086.34;6244631;28;20054;-78
2024/03/22 12:15:32;;;;;;;42.70;15.40;;;;;;;11.92;100.00;101094.88;6249453;28;20050;-79
2024/03/22 12:18:34;;;;;;;36.50;14.52;;;;;;;11.90;100.00;101100.22;6249676;28;20053;-79
2024/03/22 12:21:35;;;;;;;32.30;13.57;;;;;;;12.01;100.00;101090.88;6235433;28;20505;-79
2024/03/22 12:24:36;;;;;;;31.48;13.70;;;;;;;11.97;100.00;101091.97;6249402;28;20041;-78
2024/03/22 12:27:37;;;;;;;33.88;13.60;;;;;;;11.95;100.00;101088.59;6249291;28;20057;-78
2024/03/22 12:30:39;;;;;;;30.25;13.52;;;;;;;12.02;100.00;101075.00;6242528;28;20061;-78
2024/03/22 12:33:41;;;;;;;33.13;14.25;;;;;;;12.12;100.00;101080.59;6249286;28;20049;-77
2024/03/22 12:36:41;;;;;;;31.70;13.20;;;;;;;12.09;100.00;101080.78;6245722;28;20446;-79
2024/03/22 12:39:42;;;;;;;30.60;12.57;;;;;;;11.94;100.00;101082.44;6253492;28;20052;-79
2024/03/22 12:42:44;;;;;;;31.65;12.55;;;;;;;11.99;100.00;101076.94;6254294;28;20060;-77
2024/03/22 12:45:47;;;;;;;26.40;12.50;;;;;;;12.04;100.00;101070.50;6253696;28;20342;-78
2024/03/22 12:48:48;;;;;;;24.48;11.80;;;;;;;11.96;100.00;101071.84;6253750;28;20045;-78
2024/03/22 12:51:49;;;;;;;27.90;11.27;;;;;;;11.91;100.00;101074.72;6253115;28;20046;-79
2024/03/22 12:54:50;;;;;;;31.10;12.25;;;;;;;11.80;100.00;101066.50;6253285;28;20044;-79
2024/03/22 12:57:51;;;;;;;30.80;10.40;;;;;;;11.89;100.00;101068.69;6253734;28;20041;-81
2024/03/22 13:00:54;;;;;;;21.70;10.25;;;;;;;12.02;100.00;101063.59;6253141;28;20045;-80
2024/03/22 13:03:54;;;;;;;24.98;9.63;;;;;;;11.74;100.00;101056.31;6253475;28;20064;-80
2024/03/22 13:06:56;;;;;;;23.33;9.35;;;;;;;11.74;100.00;101059.78;6253109;28;20045;-80
2024/03/22 13:09:56;;;;;;;22.02;10.70;;;;;;;11.73;100.00;101052.84;6252703;28;20342;-80
2024/03/22 13:12:57;;;;;;;22.92;9.23;;;;;;;11.73;100.00;101049.34;6253188;28;20049;-80
2024/03/22 13:16:02;;;;;;;22.10;10.32;;;;;;;11.72;100.00;101052.91;6253168;28;20061;-80
2024/03/22 13:19:03;;;;;;;28.00;12.27;;;;;;;11.78;100.00;101047.31;6250322;28;20374;-80
2024/03/22 13:22:04;;;;;;;32.22;13.02;;;;;;;11.75;100.00;101045.69;6242012;28;20059;-80
2024/03/22 13:25:09;;;;;;;26.45;11.63;;;;;;;11.65;100.00;101055.88;6252986;28;20046;-80
2024/03/22 13:28:09;;;;;;;24.70;9.50;;;;;;;11.56;100.00;101039.72;6252938;28;20049;-79
2024/03/22 13:31:12;;;;;;;25.38;10.68;;;;;;;11.38;100.00;101036.25;6246067;28;20188;-78
2024/03/22 13:34:13;;;;;;;29.10;10.65;;;;;;;11.25;100.00;101036.03;6252854;28;20041;-80